createdAt,value
2017-09-04T00:00:09.290Z,1011.17
2017-09-04T00:01:09.717Z,1011.20
2017-09-04T00:02:10.159Z,1011.20
2017-09-04T00:03:10.591Z,1011.16
2017-09-04T00:04:11.014Z,1011.18
2017-09-04T00:05:11.446Z,1011.17
2017-09-04T00:06:11.873Z,1011.12
2017-09-04T00:07:12.311Z,1011.17
2017-09-04T00:08:12.745Z,1011.19
2017-09-04T00:09:13.175Z,1011.16
2017-09-04T00:10:13.618Z,1011.21
2017-09-04T00:11:14.046Z,1011.18
2017-09-04T00:12:14.472Z,1011.16
2017-09-04T00:13:14.905Z,1011.16
2017-09-04T00:14:15.329Z,1011.13
2017-09-04T00:15:15.764Z,1011.15
2017-09-04T00:16:16.197Z,1011.18
2017-09-04T00:17:16.632Z,1011.17
2017-09-04T00:18:17.056Z,1011.14
2017-09-04T00:19:17.502Z,1011.16
2017-09-04T00:20:17.921Z,1011.13
2017-09-04T00:21:18.351Z,1011.09
2017-09-04T00:22:18.779Z,1011.12
2017-09-04T00:23:19.211Z,1011.12
2017-09-04T00:24:19.647Z,1011.08
2017-09-04T00:25:20.078Z,1011.08
2017-09-04T00:26:20.508Z,1011.06
2017-09-04T00:27:20.938Z,1011.08
2017-09-04T00:28:21.378Z,1011.10
2017-09-04T00:29:21.802Z,1011.10
2017-09-04T00:30:22.234Z,1011.12
2017-09-04T00:31:22.672Z,1011.09
2017-09-04T00:32:23.091Z,1011.08
2017-09-04T00:33:23.522Z,1011.06
2017-09-04T00:34:23.961Z,1011.07
2017-09-04T00:35:24.385Z,1011.03
2017-09-04T00:36:24.828Z,1011.07
2017-09-04T00:37:25.252Z,1011.07
2017-09-04T00:38:25.686Z,1011.07
2017-09-04T00:39:26.111Z,1011.09
2017-09-04T00:40:26.543Z,1011.05
2017-09-04T00:41:26.975Z,1011.08
2017-09-04T00:42:27.404Z,1011.12
2017-09-04T00:43:27.834Z,1011.11
2017-09-04T00:44:28.269Z,1011.05
2017-09-04T00:45:28.697Z,1011.04
2017-09-04T00:46:29.132Z,1011.03
2017-09-04T00:47:29.569Z,1011.03
2017-09-04T00:48:30.000Z,1011.01
2017-09-04T00:49:30.510Z,1011.00
2017-09-04T00:50:30.853Z,1010.98
2017-09-04T00:51:31.280Z,1010.96
2017-09-04T00:52:31.713Z,1010.94
2017-09-04T00:53:32.149Z,1010.95
2017-09-04T00:54:32.580Z,1010.98
2017-09-04T00:55:33.008Z,1010.98
2017-09-04T00:56:33.446Z,1011.02
2017-09-04T00:57:33.874Z,1010.97
2017-09-04T00:58:34.303Z,1010.98
2017-09-04T00:59:34.739Z,1010.94
2017-09-04T01:00:35.159Z,1010.97
2017-09-04T01:01:35.590Z,1010.95
2017-09-04T01:02:36.027Z,1010.92
2017-09-04T01:03:36.459Z,1010.90
2017-09-04T01:04:36.883Z,1010.90
2017-09-04T01:05:37.319Z,1010.92
2017-09-04T01:06:37.745Z,1010.89
2017-09-04T01:07:38.181Z,1010.91
2017-09-04T01:08:38.613Z,1010.90
2017-09-04T01:09:39.047Z,1010.93
2017-09-04T01:10:39.471Z,1010.95
2017-09-04T01:11:39.898Z,1010.96
2017-09-04T01:12:40.333Z,1010.94
2017-09-04T01:13:40.759Z,1010.96
2017-09-04T01:14:41.198Z,1010.96
2017-09-04T01:15:41.625Z,1010.96
2017-09-04T01:16:42.054Z,1010.90
2017-09-04T01:17:42.489Z,1010.94
2017-09-04T01:18:42.914Z,1010.97
2017-09-04T01:19:43.347Z,1010.98
2017-09-04T01:20:43.777Z,1010.96
2017-09-04T01:21:44.217Z,1010.99
2017-09-04T01:22:44.647Z,1010.96
2017-09-04T01:23:45.069Z,1011.00
2017-09-04T01:24:45.498Z,1011.02
2017-09-04T01:25:45.933Z,1011.03
2017-09-04T01:26:46.367Z,1011.02
2017-09-04T01:27:46.794Z,1011.01
2017-09-04T01:28:47.231Z,1011.01
2017-09-04T01:29:47.654Z,1011.00
2017-09-04T01:30:48.083Z,1010.98
2017-09-04T01:31:48.517Z,1011.01
2017-09-04T01:32:48.944Z,1010.99
2017-09-04T01:33:49.471Z,1011.02
2017-09-04T01:34:49.800Z,1011.03
2017-09-04T01:35:50.234Z,1011.02
2017-09-04T01:36:50.667Z,1011.03
2017-09-04T01:37:51.103Z,1011.01
2017-09-04T01:38:51.528Z,1011.05
2017-09-04T01:39:51.959Z,1011.00
2017-09-04T01:40:52.391Z,1011.01
2017-09-04T01:41:52.827Z,1011.01
2017-09-04T01:42:53.257Z,1011.02
2017-09-04T01:43:53.681Z,1011.05
2017-09-04T01:44:54.114Z,1011.06
2017-09-04T01:45:54.547Z,1011.05
2017-09-04T01:46:54.979Z,1011.02
2017-09-04T01:47:55.412Z,1011.07
2017-09-04T01:48:55.845Z,1011.06
2017-09-04T01:49:56.265Z,1011.09
2017-09-04T01:50:56.696Z,1011.10
2017-09-04T01:51:57.124Z,1011.09
2017-09-04T01:52:57.566Z,1011.10
2017-09-04T01:53:57.986Z,1011.09
2017-09-04T01:54:58.421Z,1011.08
2017-09-04T01:55:58.947Z,1011.12
2017-09-04T01:56:59.280Z,1011.04
2017-09-04T01:57:59.715Z,1011.03
2017-09-04T01:59:00.223Z,1011.04
2017-09-04T02:00:00.571Z,1011.00
2017-09-04T02:01:01.001Z,1011.00
2017-09-04T02:02:01.436Z,1011.01
2017-09-04T02:03:01.862Z,1010.97
2017-09-04T02:04:02.298Z,1011.01
2017-09-04T02:05:02.730Z,1011.04
2017-09-04T02:06:03.159Z,1010.97
2017-09-04T02:07:03.588Z,1011.00
2017-09-04T02:08:04.021Z,1011.06
2017-09-04T02:09:04.438Z,1011.03
2017-09-04T02:10:04.872Z,1011.07
2017-09-04T02:11:05.304Z,1011.06
2017-09-04T02:12:05.740Z,1011.08
2017-09-04T02:13:06.165Z,1011.11
2017-09-04T02:14:06.593Z,1011.06
2017-09-04T02:15:07.025Z,1011.04
2017-09-04T02:16:07.457Z,1011.02
2017-09-04T02:17:07.886Z,1011.03
2017-09-04T02:18:08.316Z,1011.03
2017-09-04T02:19:08.750Z,1011.05
2017-09-04T02:20:09.174Z,1011.04
2017-09-04T02:21:09.606Z,1011.02
2017-09-04T02:22:10.040Z,1011.03
2017-09-04T02:23:10.471Z,1011.03
2017-09-04T02:24:10.911Z,1011.02
2017-09-04T02:25:11.338Z,1011.01
2017-09-04T02:26:11.756Z,1011.05
2017-09-04T02:27:12.188Z,1011.05
2017-09-04T02:28:12.620Z,1011.03
2017-09-04T02:29:13.050Z,1011.03
2017-09-04T02:30:13.477Z,1011.03
2017-09-04T02:31:13.906Z,1011.02
2017-09-04T02:32:14.335Z,1011.05
2017-09-04T02:33:14.769Z,1011.00
2017-09-04T02:34:15.214Z,1011.01
2017-09-04T02:35:15.625Z,1011.01
2017-09-04T02:36:16.059Z,1010.98
2017-09-04T02:37:16.490Z,1010.98
2017-09-04T02:38:16.922Z,1010.97
2017-09-04T02:39:17.349Z,1011.01
2017-09-04T02:40:17.783Z,1010.98
2017-09-04T02:41:18.208Z,1010.92
2017-09-04T02:42:18.642Z,1010.92
2017-09-04T02:43:19.069Z,1010.89
2017-09-04T02:44:19.500Z,1010.90
2017-09-04T02:45:19.931Z,1010.92
2017-09-04T02:46:20.362Z,1010.85
2017-09-04T02:47:20.785Z,1010.84
2017-09-04T02:48:21.232Z,1010.85
2017-09-04T02:49:21.648Z,1010.84
2017-09-04T02:50:22.082Z,1010.82
2017-09-04T02:51:22.510Z,1010.80
2017-09-04T02:52:22.937Z,1010.79
2017-09-04T02:53:23.373Z,1010.75
2017-09-04T02:54:23.807Z,1010.76
2017-09-04T02:55:24.230Z,1010.77
2017-09-04T02:56:24.659Z,1010.73
2017-09-04T02:57:25.091Z,1010.75
2017-09-04T02:58:25.519Z,1010.67
2017-09-04T02:59:25.946Z,1010.67
2017-09-04T03:00:26.398Z,1010.65
2017-09-04T03:01:26.809Z,1010.63
2017-09-04T03:02:27.239Z,1010.66
2017-09-04T03:03:27.668Z,1010.63
2017-09-04T03:04:28.099Z,1010.61
2017-09-04T03:05:28.528Z,1010.63
2017-09-04T03:06:28.955Z,1010.66
2017-09-04T03:07:29.401Z,1010.68
2017-09-04T03:08:29.818Z,1010.66
2017-09-04T03:09:30.249Z,1010.65
2017-09-04T03:10:30.678Z,1010.70
2017-09-04T03:11:31.111Z,1010.66
2017-09-04T03:12:31.548Z,1010.65
2017-09-04T03:13:31.976Z,1010.62
2017-09-04T03:14:32.401Z,1010.62
2017-09-04T03:15:32.832Z,1010.62
2017-09-04T03:16:33.260Z,1010.57
2017-09-04T03:17:33.697Z,1010.60
2017-09-04T03:18:34.130Z,1010.63
2017-09-04T03:19:34.546Z,1010.57
2017-09-04T03:20:34.981Z,1010.62
2017-09-04T03:21:35.409Z,1010.60
2017-09-04T03:22:35.841Z,1010.60
2017-09-04T03:23:36.271Z,1010.58
2017-09-04T03:24:36.697Z,1010.61
2017-09-04T03:25:37.125Z,1010.61
2017-09-04T03:26:37.567Z,1010.63
2017-09-04T03:27:37.986Z,1010.67
2017-09-04T03:28:38.416Z,1010.65
2017-09-04T03:29:38.844Z,1010.65
2017-09-04T03:30:39.273Z,1010.67
2017-09-04T03:31:39.714Z,1010.66
2017-09-04T03:32:40.133Z,1010.63
2017-09-04T03:33:40.562Z,1010.63
2017-09-04T03:34:40.999Z,1010.60
2017-09-04T03:35:41.424Z,1010.63
2017-09-04T03:36:41.850Z,1010.59
2017-09-04T03:37:42.282Z,1010.64
2017-09-04T03:38:42.715Z,1010.63
2017-09-04T03:39:43.145Z,1010.63
2017-09-04T03:40:43.573Z,1010.67
2017-09-04T03:41:44.002Z,1010.65
2017-09-04T03:42:44.435Z,1010.65
2017-09-04T03:43:44.868Z,1010.68
2017-09-04T03:44:45.288Z,1010.67
2017-09-04T03:45:45.720Z,1010.67
2017-09-04T03:46:46.184Z,1010.68
2017-09-04T03:47:46.615Z,1010.71
2017-09-04T03:48:47.009Z,1010.69
2017-09-04T03:49:47.435Z,1010.71
2017-09-04T03:50:47.874Z,1010.72
2017-09-04T03:51:48.298Z,1010.71
2017-09-04T03:52:48.728Z,1010.70
2017-09-04T03:53:49.157Z,1010.71
2017-09-04T03:54:49.587Z,1010.75
2017-09-04T03:55:50.024Z,1010.71
2017-09-04T03:56:50.452Z,1010.71
2017-09-04T03:57:50.877Z,1010.72
2017-09-04T03:58:51.310Z,1010.68
2017-09-04T03:59:51.739Z,1010.69
2017-09-04T04:00:52.166Z,1010.72
2017-09-04T04:01:52.599Z,1010.69
2017-09-04T04:02:53.029Z,1010.71
2017-09-04T04:03:53.457Z,1010.72
2017-09-04T04:04:53.885Z,1010.73
2017-09-04T04:05:54.312Z,1010.72
2017-09-04T04:06:54.747Z,1010.66
2017-09-04T04:07:55.176Z,1010.72
2017-09-04T04:08:55.606Z,1010.68
2017-09-04T04:09:56.055Z,1010.71
2017-09-04T04:10:56.464Z,1010.68
2017-09-04T04:11:56.896Z,1010.73
2017-09-04T04:12:57.318Z,1010.70
2017-09-04T04:13:57.759Z,1010.68
2017-09-04T04:14:58.181Z,1010.68
2017-09-04T04:15:58.621Z,1010.68
2017-09-04T04:16:59.045Z,1010.64
2017-09-04T04:17:59.470Z,1010.63
2017-09-04T04:18:59.903Z,1010.62
2017-09-04T04:20:00.332Z,1010.65
2017-09-04T04:21:00.821Z,1010.62
2017-09-04T04:22:01.191Z,1010.59
2017-09-04T04:23:01.629Z,1010.63
2017-09-04T04:24:02.052Z,1010.58
2017-09-04T04:25:02.481Z,1010.57
2017-09-04T04:26:02.905Z,1010.56
2017-09-04T04:27:03.341Z,1010.59
2017-09-04T04:28:03.768Z,1010.55
2017-09-04T04:29:04.198Z,1010.58
2017-09-04T04:30:04.628Z,1010.60
2017-09-04T04:31:05.055Z,1010.56
2017-09-04T04:32:05.487Z,1010.57
2017-09-04T04:33:05.915Z,1010.56
2017-09-04T04:34:06.351Z,1010.59
2017-09-04T04:35:06.773Z,1010.53
2017-09-04T04:36:07.241Z,1010.56
2017-09-04T04:37:07.643Z,1010.54
2017-09-04T04:38:08.066Z,1010.53
2017-09-04T04:39:08.506Z,1010.52
2017-09-04T04:40:08.921Z,1010.53
2017-09-04T04:41:09.353Z,1010.53
2017-09-04T04:42:09.790Z,1010.53
2017-09-04T04:43:10.211Z,1010.54
2017-09-04T04:44:10.642Z,1010.55
2017-09-04T04:45:11.077Z,1010.53
2017-09-04T04:46:11.502Z,1010.52
2017-09-04T04:47:11.929Z,1010.53
2017-09-04T04:48:12.361Z,1010.50
2017-09-04T04:49:12.791Z,1010.52
2017-09-04T04:50:13.221Z,1010.53
2017-09-04T04:51:13.650Z,1010.54
2017-09-04T04:52:14.077Z,1010.53
2017-09-04T04:53:14.517Z,1010.56
2017-09-04T04:54:14.939Z,1010.56
2017-09-04T04:55:15.372Z,1010.54
2017-09-04T04:56:15.799Z,1010.58
2017-09-04T04:57:16.237Z,1010.52
2017-09-04T04:58:16.659Z,1010.55
2017-09-04T04:59:17.085Z,1010.57
2017-09-04T05:00:17.614Z,1010.57
2017-09-04T05:01:17.946Z,1010.54
2017-09-04T05:02:18.386Z,1010.54
2017-09-04T05:03:18.813Z,1010.56
2017-09-04T05:04:19.245Z,1010.57
2017-09-04T05:05:19.675Z,1010.55
2017-09-04T05:06:20.107Z,1010.51
2017-09-04T05:07:20.538Z,1010.52
2017-09-04T05:08:21.003Z,1010.49
2017-09-04T05:09:21.398Z,1010.49
2017-09-04T05:10:21.823Z,1010.44
2017-09-04T05:11:22.251Z,1010.47
2017-09-04T05:12:22.682Z,1010.46
2017-09-04T05:13:23.110Z,1010.47
2017-09-04T05:14:23.537Z,1010.45
2017-09-04T05:15:23.968Z,1010.46
2017-09-04T05:16:24.402Z,1010.44
2017-09-04T05:17:24.824Z,1010.46
2017-09-04T05:18:25.261Z,1010.46
2017-09-04T05:19:25.688Z,1010.47
2017-09-04T05:20:26.112Z,1010.44
2017-09-04T05:21:26.554Z,1010.45
2017-09-04T05:22:26.971Z,1010.44
2017-09-04T05:23:27.412Z,1010.46
2017-09-04T05:24:27.835Z,1010.46
2017-09-04T05:25:28.261Z,1010.48
2017-09-04T05:26:28.702Z,1010.50
2017-09-04T05:27:29.128Z,1010.49
2017-09-04T05:28:29.556Z,1010.47
2017-09-04T05:29:29.986Z,1010.46
2017-09-04T05:30:30.417Z,1010.48
2017-09-04T05:31:30.844Z,1010.48
2017-09-04T05:32:31.271Z,1010.51
2017-09-04T05:33:31.702Z,1010.52
2017-09-04T05:34:32.133Z,1010.49
2017-09-04T05:35:32.609Z,1010.52
2017-09-04T05:36:32.994Z,1010.51
2017-09-04T05:37:33.420Z,1010.54
2017-09-04T05:38:33.850Z,1010.54
2017-09-04T05:39:34.286Z,1010.51
2017-09-04T05:40:34.717Z,1010.55
2017-09-04T05:41:35.144Z,1010.56
2017-09-04T05:42:35.633Z,1010.57
2017-09-04T05:43:36.019Z,1010.59
2017-09-04T05:44:36.440Z,1010.58
2017-09-04T05:45:36.864Z,1010.56
2017-09-04T05:46:37.302Z,1010.58
2017-09-04T05:47:37.723Z,1010.57
2017-09-04T05:48:38.157Z,1010.58
2017-09-04T05:49:38.585Z,1010.57
2017-09-04T05:50:39.014Z,1010.56
2017-09-04T05:51:39.449Z,1010.56
2017-09-04T05:52:39.879Z,1010.54
2017-09-04T05:53:40.304Z,1010.54
2017-09-04T05:54:40.739Z,1010.54
2017-09-04T05:55:41.173Z,1010.59
2017-09-04T05:56:41.601Z,1010.62
2017-09-04T05:57:42.033Z,1010.61
2017-09-04T05:58:42.460Z,1010.60
2017-09-04T05:59:42.893Z,1010.62
2017-09-04T06:00:43.332Z,1010.62
2017-09-04T06:01:43.755Z,1010.64
2017-09-04T06:02:44.183Z,1010.61
2017-09-04T06:03:44.611Z,1010.67
2017-09-04T06:04:45.042Z,1010.70
2017-09-04T06:05:45.472Z,1010.70
2017-09-04T06:06:45.901Z,1010.73
2017-09-04T06:07:46.334Z,1010.74
2017-09-04T06:08:46.769Z,1010.76
2017-09-04T06:09:47.195Z,1010.79
2017-09-04T06:10:47.629Z,1010.81
2017-09-04T06:11:48.057Z,1010.82
2017-09-04T06:12:48.500Z,1010.84
2017-09-04T06:13:48.925Z,1010.84
2017-09-04T06:14:49.348Z,1010.86
2017-09-04T06:15:49.788Z,1010.85
2017-09-04T06:16:50.210Z,1010.87
2017-09-04T06:17:50.644Z,1010.89
2017-09-04T06:18:51.074Z,1010.89
2017-09-04T06:19:51.501Z,1010.86
2017-09-04T06:20:51.951Z,1010.93
2017-09-04T06:21:52.365Z,1010.89
2017-09-04T06:22:52.806Z,1010.96
2017-09-04T06:23:53.226Z,1010.89
2017-09-04T06:24:53.664Z,1010.89
2017-09-04T06:25:54.093Z,1010.89
2017-09-04T06:26:54.521Z,1010.90
2017-09-04T06:27:54.959Z,1010.93
2017-09-04T06:28:55.384Z,1010.96
2017-09-04T06:29:55.821Z,1010.93
2017-09-04T06:30:56.247Z,1010.98
2017-09-04T06:31:56.682Z,1010.99
2017-09-04T06:32:57.113Z,1010.98
2017-09-04T06:33:57.541Z,1010.99
2017-09-04T06:34:57.974Z,1011.01
2017-09-04T06:35:58.405Z,1011.01
2017-09-04T06:36:58.837Z,1011.03
2017-09-04T06:37:59.267Z,1011.03
2017-09-04T06:38:59.704Z,1011.04
2017-09-04T06:40:00.129Z,1011.04
2017-09-04T06:41:00.568Z,1010.99
2017-09-04T06:42:00.994Z,1011.01
2017-09-04T06:43:01.427Z,1011.06
2017-09-04T06:44:01.859Z,1011.06
2017-09-04T06:45:02.308Z,1011.05
2017-09-04T06:46:02.722Z,1011.06
2017-09-04T06:47:03.154Z,1011.10
2017-09-04T06:48:03.591Z,1011.10
2017-09-04T06:49:04.560Z,1011.06
2017-09-04T06:50:04.664Z,1011.07
2017-09-04T06:51:04.874Z,1011.04
2017-09-04T06:52:05.312Z,1011.05
2017-09-04T06:53:05.750Z,1011.07
2017-09-04T06:54:06.179Z,1011.04
2017-09-04T06:55:06.617Z,1011.08
2017-09-04T06:56:07.055Z,1011.07
2017-09-04T06:57:07.478Z,1011.05
2017-09-04T06:58:07.908Z,1011.05
2017-09-04T06:59:08.344Z,1011.08
2017-09-04T07:00:08.777Z,1011.10
2017-09-04T07:01:09.207Z,1011.08
2017-09-04T07:02:09.638Z,1011.10
2017-09-04T07:03:10.070Z,1011.15
2017-09-04T07:04:10.505Z,1011.16
2017-09-04T07:05:10.936Z,1011.11
2017-09-04T07:06:11.372Z,1011.11
2017-09-04T07:07:11.807Z,1011.18
2017-09-04T07:08:12.233Z,1011.18
2017-09-04T07:09:12.665Z,1011.17
2017-09-04T07:10:13.099Z,1011.20
2017-09-04T07:11:13.535Z,1011.15
2017-09-04T07:12:13.971Z,1011.21
2017-09-04T07:13:14.412Z,1011.21
2017-09-04T07:14:14.863Z,1011.22
2017-09-04T07:15:15.264Z,1011.28
2017-09-04T07:16:15.700Z,1011.29
2017-09-04T07:17:16.131Z,1011.27
2017-09-04T07:18:16.565Z,1011.29
2017-09-04T07:19:17.008Z,1011.27
2017-09-04T07:20:17.437Z,1011.27
2017-09-04T07:21:17.868Z,1011.33
2017-09-04T07:22:18.299Z,1011.29
2017-09-04T07:23:18.740Z,1011.33
2017-09-04T07:24:19.170Z,1011.31
2017-09-04T07:25:19.611Z,1011.34
2017-09-04T07:26:20.039Z,1011.31
2017-09-04T07:27:20.472Z,1011.31
2017-09-04T07:28:20.905Z,1011.29
2017-09-04T07:29:21.343Z,1011.26
2017-09-04T07:30:21.768Z,1011.30
2017-09-04T07:31:24.176Z,1011.31
2017-09-04T07:32:22.639Z,1011.32
2017-09-04T07:33:25.676Z,1011.25
2017-09-04T07:34:23.509Z,1011.33
2017-09-04T07:35:23.947Z,1011.28
2017-09-04T07:36:24.381Z,1011.30
2017-09-04T07:37:24.813Z,1011.35
2017-09-04T07:38:25.250Z,1011.36
2017-09-04T07:39:25.694Z,1011.31
2017-09-04T07:40:26.133Z,1011.32
2017-09-04T07:41:26.556Z,1011.36
2017-09-04T07:42:26.989Z,1011.40
2017-09-04T07:43:27.422Z,1011.36
2017-09-04T07:44:27.857Z,1011.38
2017-09-04T07:45:28.300Z,1011.39
2017-09-04T07:46:28.731Z,1011.41
2017-09-04T07:47:29.177Z,1011.40
2017-09-04T07:48:29.606Z,1011.38
2017-09-04T07:49:30.046Z,1011.41
2017-09-04T07:50:30.487Z,1011.44
2017-09-04T07:51:31.004Z,1011.44
2017-09-04T07:52:31.368Z,1011.47
2017-09-04T07:53:31.811Z,1011.47
2017-09-04T07:54:32.256Z,1011.46
2017-09-04T07:55:32.694Z,1011.44
2017-09-04T07:56:33.139Z,1011.42
2017-09-04T07:57:33.588Z,1011.44
2017-09-04T07:58:34.057Z,1011.46
2017-09-04T07:59:34.476Z,1011.47
2017-09-04T08:00:34.939Z,1011.45
2017-09-04T08:01:35.376Z,1011.43
2017-09-04T08:02:35.822Z,1011.43
2017-09-04T08:03:36.269Z,1011.47
2017-09-04T08:04:36.722Z,1011.45
2017-09-04T08:05:37.175Z,1011.40
2017-09-04T08:06:37.617Z,1011.43
2017-09-04T08:07:38.070Z,1011.41
2017-09-04T08:08:38.524Z,1011.44
2017-09-04T08:09:39.018Z,1011.45
2017-09-04T08:10:39.426Z,1011.45
2017-09-04T08:11:39.877Z,1011.49
2017-09-04T08:12:40.332Z,1011.48
2017-09-04T08:13:40.788Z,1011.48
2017-09-04T08:14:41.238Z,1011.48
2017-09-04T08:15:41.699Z,1011.51
2017-09-04T08:16:42.150Z,1011.46
2017-09-04T08:17:42.603Z,1011.55
2017-09-04T08:18:43.059Z,1011.51
2017-09-04T08:19:43.518Z,1011.53
2017-09-04T08:20:43.963Z,1011.51
2017-09-04T08:21:44.416Z,1011.49
2017-09-04T08:22:44.873Z,1011.54
2017-09-04T08:23:45.333Z,1011.53
2017-09-04T08:24:45.792Z,1011.53
2017-09-04T08:25:46.245Z,1011.53
2017-09-04T08:26:46.694Z,1011.56
2017-09-04T08:27:47.149Z,1011.51
2017-09-04T08:28:47.616Z,1011.54
2017-09-04T08:29:48.067Z,1011.52
2017-09-04T08:30:48.520Z,1011.50
2017-09-04T08:31:48.988Z,1011.49
2017-09-04T08:32:49.427Z,1011.56
2017-09-04T08:33:49.887Z,1011.48
2017-09-04T08:34:50.340Z,1011.54
2017-09-04T08:35:50.799Z,1011.53
2017-09-04T08:36:51.255Z,1011.51
2017-09-04T08:37:51.718Z,1011.50
2017-09-04T08:38:52.177Z,1011.50
2017-09-04T08:39:52.622Z,1011.55
2017-09-04T08:40:53.085Z,1011.54
2017-09-04T08:41:53.539Z,1011.55
2017-09-04T08:42:54.014Z,1011.52
2017-09-04T08:47:02.815Z,1011.54
2017-09-04T08:48:03.289Z,1011.55
2017-09-04T08:49:57.893Z,1011.52
2017-09-04T08:50:58.363Z,1011.56
2017-09-04T08:52:53.898Z,1011.48
2017-09-04T08:53:54.352Z,1011.53
2017-09-04T08:55:55.682Z,1011.53
2017-09-04T08:56:56.137Z,1011.56
2017-09-04T08:57:56.597Z,1011.54
2017-09-04T08:58:57.053Z,1011.54
2017-09-04T08:59:57.522Z,1011.63
2017-09-04T09:00:57.972Z,1011.58
2017-09-04T09:01:58.453Z,1011.58
2017-09-04T09:02:58.890Z,1011.65
2017-09-04T09:03:59.353Z,1011.58
2017-09-04T09:04:59.816Z,1011.57
2017-09-04T09:06:00.279Z,1011.64
2017-09-04T09:07:00.738Z,1011.56
2017-09-04T09:08:01.194Z,1011.63
2017-09-04T09:09:01.657Z,1011.63
2017-09-04T09:10:02.116Z,1011.64
2017-09-04T09:11:02.575Z,1011.69
2017-09-04T09:12:03.037Z,1011.68
2017-09-04T09:13:03.498Z,1011.67
2017-09-04T09:15:37.094Z,1011.63
2017-09-04T09:16:37.563Z,1011.64
2017-09-04T09:18:32.183Z,1011.69
2017-09-04T09:19:32.674Z,1011.66
2017-09-04T09:21:27.274Z,1011.69
2017-09-04T09:22:27.733Z,1011.68
2017-09-04T09:24:22.349Z,1011.70
2017-09-04T09:25:22.818Z,1011.72
2017-09-04T09:27:18.408Z,1011.71
2017-09-04T09:28:18.870Z,1011.67
2017-09-04T09:30:13.492Z,1011.61
2017-09-04T09:31:13.961Z,1011.69
2017-09-04T09:33:08.620Z,1011.67
2017-09-04T09:34:09.058Z,1011.70
2017-09-04T09:36:03.723Z,1011.68
2017-09-04T09:37:04.131Z,1011.69
2017-09-04T09:38:59.731Z,1011.71
2017-09-04T09:40:00.197Z,1011.66
2017-09-04T09:41:54.817Z,1011.72
2017-09-04T09:42:55.275Z,1011.70
2017-09-04T09:44:49.895Z,1011.67
2017-09-04T09:45:50.358Z,1011.61
2017-09-04T09:47:45.956Z,1011.62
2017-09-04T09:48:46.420Z,1011.61
2017-09-04T09:50:41.039Z,1011.61
2017-09-04T09:51:41.510Z,1011.66
2017-09-04T09:53:37.095Z,1011.75
2017-09-04T09:54:37.572Z,1011.67
2017-09-04T09:55:38.041Z,1011.64
2017-09-04T09:56:38.487Z,1011.70
2017-09-04T09:57:38.949Z,1011.67
2017-09-04T09:58:39.412Z,1011.66
2017-09-04T09:59:39.880Z,1011.71
2017-09-04T10:00:40.358Z,1011.69
2017-09-04T10:01:40.795Z,1011.77
2017-09-04T10:02:41.253Z,1011.67
2017-09-04T10:03:41.716Z,1011.67
2017-09-04T10:04:42.175Z,1011.62
2017-09-04T10:05:42.641Z,1011.63
2017-09-04T10:06:43.099Z,1011.61
2017-09-04T10:07:43.559Z,1011.65
2017-09-04T10:08:44.028Z,1011.61
2017-09-04T10:09:44.488Z,1011.69
2017-09-04T10:10:44.943Z,1011.66
2017-09-04T10:11:45.402Z,1011.58
2017-09-04T10:12:45.866Z,1011.57
2017-09-04T10:13:46.332Z,1011.53
2017-09-04T10:14:46.795Z,1011.54
2017-09-04T10:15:47.257Z,1011.52
2017-09-04T10:16:47.716Z,1011.61
2017-09-04T10:17:48.179Z,1011.61
2017-09-04T10:18:48.646Z,1011.53
2017-09-04T10:19:49.106Z,1011.54
2017-09-04T10:20:49.570Z,1011.55
2017-09-04T10:21:50.036Z,1011.60
2017-09-04T10:22:50.501Z,1011.60
2017-09-04T10:23:50.963Z,1011.62
2017-09-04T10:24:51.436Z,1011.58
2017-09-04T10:25:51.892Z,1011.60
2017-09-04T10:26:52.359Z,1011.53
2017-09-04T10:27:52.822Z,1011.57
2017-09-04T10:28:53.294Z,1011.58
2017-09-04T10:29:53.756Z,1011.59
2017-09-04T10:30:54.218Z,1011.59
2017-09-04T10:31:54.681Z,1011.58
2017-09-04T10:32:55.148Z,1011.50
2017-09-04T10:33:55.629Z,1011.59
2017-09-04T10:34:56.073Z,1011.63
2017-09-04T10:35:56.539Z,1011.59
2017-09-04T10:36:57.009Z,1011.53
2017-09-04T10:37:57.489Z,1011.55
2017-09-04T10:38:57.925Z,1011.66
2017-09-04T10:39:58.391Z,1011.59
2017-09-04T10:40:58.849Z,1011.60
2017-09-04T10:41:59.307Z,1011.55
2017-09-04T10:42:59.812Z,1011.61
2017-09-04T10:44:00.226Z,1011.68
2017-09-04T10:45:00.690Z,1011.65
2017-09-04T10:46:01.148Z,1011.72
2017-09-04T10:47:01.606Z,1011.63
2017-09-04T10:48:02.072Z,1011.71
2017-09-04T10:49:02.528Z,1011.75
2017-09-04T10:50:03.006Z,1011.67
2017-09-04T10:51:03.460Z,1011.62
2017-09-04T10:52:03.916Z,1011.63
2017-09-04T10:53:04.373Z,1011.61
2017-09-04T10:54:04.839Z,1011.59
2017-09-04T10:55:05.301Z,1011.59
2017-09-04T10:56:05.761Z,1011.57
2017-09-04T10:57:06.227Z,1011.61
2017-09-04T10:58:06.696Z,1011.65
2017-09-04T10:59:07.162Z,1011.66
2017-09-04T11:00:07.622Z,1011.59
2017-09-04T11:01:08.081Z,1011.56
2017-09-04T11:02:08.550Z,1011.60
2017-09-04T11:03:09.009Z,1011.64
2017-09-04T11:04:09.470Z,1011.66
2017-09-04T11:05:09.939Z,1011.66
2017-09-04T11:06:10.401Z,1011.55
2017-09-04T11:07:10.867Z,1011.54
2017-09-04T11:08:11.330Z,1011.64
2017-09-04T11:09:11.801Z,1011.55
2017-09-04T11:11:46.613Z,1011.64
2017-09-04T11:12:47.072Z,1011.62
2017-09-04T11:14:41.691Z,1011.63
2017-09-04T11:15:42.166Z,1011.52
2017-09-04T11:16:42.628Z,1011.60
2017-09-04T11:17:43.089Z,1011.60
2017-09-04T11:18:43.556Z,1011.61
2017-09-04T11:19:44.021Z,1011.54
2017-09-04T11:20:44.493Z,1011.57
2017-09-04T11:21:44.957Z,1011.64
2017-09-04T11:22:45.422Z,1011.61
2017-09-04T11:23:45.890Z,1011.60
2017-09-04T11:24:46.349Z,1011.59
2017-09-04T11:25:46.814Z,1011.59
2017-09-04T11:26:47.280Z,1011.56
2017-09-04T11:27:47.741Z,1011.62
2017-09-04T11:28:48.217Z,1011.56
2017-09-04T11:29:48.677Z,1011.70
2017-09-04T11:30:49.148Z,1011.64
2017-09-04T11:31:49.611Z,1011.64
2017-09-04T11:32:50.075Z,1011.58
2017-09-04T11:33:50.552Z,1011.61
2017-09-04T11:34:51.034Z,1011.63
2017-09-04T11:35:51.477Z,1011.63
2017-09-04T11:36:51.938Z,1011.62
2017-09-04T11:37:52.400Z,1011.61
2017-09-04T11:38:52.917Z,1011.53
2017-09-04T11:39:53.338Z,1011.62
2017-09-04T11:40:53.806Z,1011.59
2017-09-04T11:41:54.261Z,1011.69
2017-09-04T11:42:54.722Z,1011.63
2017-09-04T11:43:55.183Z,1011.68
2017-09-04T11:44:55.649Z,1011.77
2017-09-04T11:45:56.117Z,1011.72
2017-09-04T11:46:56.561Z,1011.72
2017-09-04T11:47:57.018Z,1011.78
2017-09-04T11:48:57.485Z,1011.67
2017-09-04T11:49:57.925Z,1011.73
2017-09-04T11:50:58.399Z,1011.68
2017-09-04T11:51:58.834Z,1011.70
2017-09-04T11:52:59.290Z,1011.73
2017-09-04T11:53:59.743Z,1011.66
2017-09-04T11:55:00.190Z,1011.66
2017-09-04T11:56:00.646Z,1011.72
2017-09-04T11:57:01.093Z,1011.70
2017-09-04T11:58:01.544Z,1011.72
2017-09-04T11:59:01.995Z,1011.63
2017-09-04T12:00:02.443Z,1011.73
2017-09-04T12:01:02.894Z,1011.71
2017-09-04T12:02:03.341Z,1011.75
2017-09-04T12:03:03.782Z,1011.72
2017-09-04T12:04:04.227Z,1011.67
2017-09-04T12:05:04.695Z,1011.64
2017-09-04T12:06:05.114Z,1011.68
2017-09-04T12:07:05.568Z,1011.69
2017-09-04T12:08:06.016Z,1011.70
2017-09-04T12:09:06.465Z,1011.69
2017-09-04T12:10:06.920Z,1011.62
2017-09-04T12:11:07.352Z,1011.61
2017-09-04T12:12:07.803Z,1011.65
2017-09-04T12:13:08.244Z,1011.56
2017-09-04T12:14:08.688Z,1011.60
2017-09-04T12:15:09.134Z,1011.61
2017-09-04T12:16:09.577Z,1011.60
2017-09-04T12:17:10.044Z,1011.60
2017-09-04T12:18:10.473Z,1011.63
2017-09-04T12:19:10.910Z,1011.64
2017-09-04T12:20:11.366Z,1011.63
2017-09-04T12:21:11.799Z,1011.59
2017-09-04T12:22:12.255Z,1011.55
2017-09-04T12:23:12.691Z,1011.58
2017-09-04T12:24:13.136Z,1011.70
2017-09-04T12:25:13.583Z,1011.65
2017-09-04T12:26:14.034Z,1011.72
2017-09-04T12:27:14.468Z,1011.68
2017-09-04T12:28:14.922Z,1011.74
2017-09-04T12:29:15.356Z,1011.67
2017-09-04T12:30:15.801Z,1011.61
2017-09-04T12:31:16.241Z,1011.61
2017-09-04T12:32:16.690Z,1011.61